createdAt,value
2022-12-11T00:00:41.642Z,1.71
2022-12-11T00:02:02.455Z,1.70
2022-12-11T00:03:24.173Z,1.69
2022-12-11T00:04:45.765Z,1.68
2022-12-11T00:06:07.122Z,1.68
2022-12-11T00:07:28.736Z,1.67
2022-12-11T00:08:52.315Z,1.67
2022-12-11T00:10:13.260Z,1.67
2022-12-11T00:11:35.113Z,1.67
2022-12-11T00:12:57.768Z,1.66
2022-12-11T00:14:20.086Z,1.65
2022-12-11T00:15:42.265Z,1.66
2022-12-11T00:17:03.923Z,1.64
2022-12-11T00:18:24.299Z,1.64
2022-12-11T00:19:46.331Z,1.63
2022-12-11T00:21:08.249Z,1.63
2022-12-11T00:22:31.501Z,1.63
2022-12-11T00:23:53.896Z,1.63
2022-12-11T00:25:20.833Z,1.63
2022-12-11T00:26:42.130Z,1.64
2022-12-11T00:28:04.589Z,1.65
2022-12-11T00:29:26.850Z,1.66
2022-12-11T00:30:50.566Z,1.66
2022-12-11T00:32:11.482Z,1.66
2022-12-11T00:33:33.679Z,1.66
2022-12-11T00:34:58.518Z,1.65
2022-12-11T00:36:21.039Z,1.66
2022-12-11T00:37:43.109Z,1.65
2022-12-11T00:39:05.974Z,1.67
2022-12-11T00:40:31.973Z,1.69
2022-12-11T00:41:56.850Z,1.69
2022-12-11T00:43:18.286Z,1.70
2022-12-11T00:44:40.247Z,1.69
2022-12-11T00:46:03.167Z,1.71
2022-12-11T00:47:31.096Z,1.72
2022-12-11T00:48:53.809Z,1.72
2022-12-11T00:50:15.166Z,1.73
2022-12-11T00:51:41.869Z,1.72
2022-12-11T00:53:02.948Z,1.73
2022-12-11T00:54:25.374Z,1.73
2022-12-11T00:55:48.544Z,1.75
2022-12-11T00:57:11.502Z,1.75
2022-12-11T00:58:35.526Z,1.76
2022-12-11T00:59:57.597Z,1.76
2022-12-11T01:01:22.355Z,1.76
2022-12-11T01:02:43.355Z,1.75
2022-12-11T01:04:05.742Z,1.74
2022-12-11T01:05:30.550Z,1.74
2022-12-11T01:06:53.257Z,1.75
2022-12-11T01:08:15.184Z,1.73
2022-12-11T01:09:54.385Z,1.72
2022-12-11T01:11:18.563Z,1.72
2022-12-11T01:12:41.786Z,1.71
2022-12-11T01:14:03.605Z,1.71
2022-12-11T01:15:28.161Z,1.71
2022-12-11T01:16:51.831Z,1.69
2022-12-11T01:18:15.557Z,1.69
2022-12-11T01:19:37.513Z,1.67
2022-12-11T01:20:59.604Z,1.68
2022-12-11T01:22:21.370Z,1.68
2022-12-11T01:23:42.875Z,1.67
2022-12-11T01:25:04.070Z,1.67
2022-12-11T01:26:28.260Z,1.66
2022-12-11T01:27:50.417Z,1.66
2022-12-11T01:29:12.358Z,1.66
2022-12-11T01:30:33.228Z,1.66
2022-12-11T01:31:56.464Z,1.66
2022-12-11T01:33:18.360Z,1.65
2022-12-11T01:34:40.223Z,1.66
2022-12-11T01:36:02.011Z,1.65
2022-12-11T01:37:22.886Z,1.65
2022-12-11T01:38:44.495Z,1.66
2022-12-11T01:40:06.227Z,1.65
2022-12-11T01:41:28.031Z,1.66
2022-12-11T01:42:49.085Z,1.64
2022-12-11T01:44:25.947Z,1.64
2022-12-11T01:45:49.216Z,1.64
2022-12-11T01:47:14.514Z,1.62
2022-12-11T01:48:41.942Z,1.64
2022-12-11T01:50:03.245Z,1.63
2022-12-11T01:51:30.239Z,1.64
2022-12-11T01:52:51.212Z,1.64
2022-12-11T01:54:14.940Z,1.66
2022-12-11T01:55:38.482Z,1.67
2022-12-11T01:57:02.826Z,1.68
2022-12-11T01:58:26.751Z,1.68
2022-12-11T01:59:48.739Z,1.68
2022-12-11T02:01:21.757Z,1.68
2022-12-11T02:02:44.512Z,1.70
2022-12-11T02:04:07.807Z,1.71
2022-12-11T02:05:28.647Z,1.69
2022-12-11T02:06:52.494Z,1.71
2022-12-11T02:08:14.148Z,1.69
2022-12-11T02:09:36.321Z,1.69
2022-12-11T02:11:03.244Z,1.68
2022-12-11T02:12:28.407Z,1.67
2022-12-11T02:13:53.992Z,1.65
2022-12-11T02:15:19.376Z,1.65
2022-12-11T02:16:53.624Z,1.64
2022-12-11T02:18:19.708Z,1.64
2022-12-11T02:19:55.497Z,1.63
2022-12-11T02:21:22.126Z,1.63
2022-12-11T02:22:54.544Z,1.62
2022-12-11T02:24:27.191Z,1.61
2022-12-11T02:25:53.659Z,1.62
2022-12-11T02:27:22.095Z,1.60
2022-12-11T02:28:48.497Z,1.60
2022-12-11T02:30:12.173Z,1.59
2022-12-11T02:31:35.044Z,1.60
2022-12-11T02:32:57.634Z,1.60
2022-12-11T02:34:21.046Z,1.59
2022-12-11T02:35:44.502Z,1.60
2022-12-11T02:37:12.473Z,1.58
2022-12-11T02:38:35.353Z,1.58
2022-12-11T02:39:59.619Z,1.58
2022-12-11T02:41:23.047Z,1.57
2022-12-11T02:42:45.923Z,1.57
2022-12-11T02:44:09.788Z,1.56
2022-12-11T02:45:32.566Z,1.56
2022-12-11T02:46:55.268Z,1.56
2022-12-11T02:48:17.638Z,1.56
2022-12-11T02:49:40.202Z,1.57
2022-12-11T02:51:03.330Z,1.58
2022-12-11T02:52:25.751Z,1.58
2022-12-11T02:53:51.290Z,1.58
2022-12-11T02:55:13.805Z,1.58
2022-12-11T02:56:40.340Z,1.59
2022-12-11T02:58:05.570Z,1.61
2022-12-11T02:59:30.466Z,1.60
2022-12-11T03:00:52.437Z,1.62
2022-12-11T03:02:14.033Z,1.62
2022-12-11T03:03:35.657Z,1.62
2022-12-11T03:04:57.894Z,1.62
2022-12-11T03:06:22.698Z,1.63
2022-12-11T03:07:45.789Z,1.63
2022-12-11T03:09:07.280Z,1.63
2022-12-11T03:10:29.230Z,1.64
2022-12-11T03:11:53.716Z,1.63
2022-12-11T03:13:19.448Z,1.64
2022-12-11T03:14:42.624Z,1.63
2022-12-11T03:16:08.554Z,1.62
2022-12-11T03:17:34.189Z,1.62
2022-12-11T03:18:59.274Z,1.60
2022-12-11T03:20:24.522Z,1.59
2022-12-11T03:21:50.210Z,1.59
2022-12-11T03:23:21.256Z,1.59
2022-12-11T03:24:45.513Z,1.58
2022-12-11T03:26:10.228Z,1.58
2022-12-11T03:27:33.701Z,1.59
2022-12-11T03:29:00.988Z,1.59
2022-12-11T03:30:25.148Z,1.59
2022-12-11T03:31:49.901Z,1.59
2022-12-11T03:33:13.098Z,1.59
2022-12-11T03:34:38.943Z,1.59
2022-12-11T03:36:01.899Z,1.59
2022-12-11T03:37:24.763Z,1.59
2022-12-11T03:38:49.322Z,1.59
2022-12-11T03:40:50.321Z,1.59
2022-12-11T03:42:13.474Z,1.59
2022-12-11T03:43:37.950Z,1.58
2022-12-11T03:45:00.670Z,1.58
2022-12-11T03:46:54.373Z,1.57
2022-12-11T03:48:41.247Z,1.57
2022-12-11T03:50:31.999Z,1.56
2022-12-11T03:51:56.100Z,1.55
2022-12-11T03:53:17.170Z,1.54
2022-12-11T03:54:39.617Z,1.53
2022-12-11T03:56:04.210Z,1.51
2022-12-11T03:57:30.589Z,1.49
2022-12-11T03:58:52.502Z,1.46
2022-12-11T04:00:14.479Z,1.46
2022-12-11T04:01:36.970Z,1.44
2022-12-11T04:03:14.057Z,1.43
2022-12-11T04:04:36.702Z,1.43
2022-12-11T04:05:57.836Z,1.41
2022-12-11T04:07:20.993Z,1.39
2022-12-11T04:08:42.978Z,1.39
2022-12-11T04:10:04.567Z,1.35
2022-12-11T04:11:40.254Z,1.36
2022-12-11T04:13:05.364Z,1.34
2022-12-11T04:14:45.348Z,1.34
2022-12-11T04:16:09.092Z,1.34
2022-12-11T04:17:54.374Z,1.32
2022-12-11T04:19:34.039Z,1.32
2022-12-11T04:21:14.053Z,1.32
2022-12-11T04:22:54.861Z,1.32
2022-12-11T04:24:17.013Z,1.31
2022-12-11T04:25:38.882Z,1.29
2022-12-11T04:26:59.727Z,1.30
2022-12-11T04:28:21.506Z,1.30
2022-12-11T04:29:42.092Z,1.30
2022-12-11T04:31:04.390Z,1.29
2022-12-11T04:32:25.204Z,1.27
2022-12-11T04:33:47.275Z,1.27
2022-12-11T04:35:09.136Z,1.25
2022-12-11T04:36:35.906Z,1.24
2022-12-11T04:37:59.139Z,1.22
2022-12-11T04:39:21.349Z,1.21
2022-12-11T04:40:42.967Z,1.21
2022-12-11T04:42:03.871Z,1.19
2022-12-11T04:43:25.384Z,1.19
2022-12-11T04:44:46.966Z,1.21
2022-12-11T04:46:10.118Z,1.21
2022-12-11T04:47:31.049Z,1.21
2022-12-11T04:48:57.292Z,1.22
2022-12-11T04:50:19.246Z,1.22
2022-12-11T04:51:40.988Z,1.23
2022-12-11T04:53:04.095Z,1.23
2022-12-11T04:54:24.969Z,1.24
2022-12-11T04:55:47.135Z,1.23
2022-12-11T04:57:08.174Z,1.22
2022-12-11T04:58:30.350Z,1.21
2022-12-11T04:59:52.207Z,1.22
2022-12-11T05:01:14.205Z,1.20
2022-12-11T05:02:36.642Z,1.21
2022-12-11T05:04:00.214Z,1.21
2022-12-11T05:05:21.696Z,1.20
2022-12-11T05:06:43.586Z,1.21
2022-12-11T05:08:07.016Z,1.19
2022-12-11T05:09:28.015Z,1.20
2022-12-11T05:10:56.279Z,1.19
2022-12-11T05:12:17.346Z,1.19
2022-12-11T05:13:38.912Z,1.20
2022-12-11T05:15:00.642Z,1.19
2022-12-11T05:16:22.409Z,1.17
2022-12-11T05:17:42.987Z,1.17
2022-12-11T05:19:04.960Z,1.16
2022-12-11T05:20:27.060Z,1.17
2022-12-11T05:21:49.059Z,1.16
2022-12-11T05:23:12.232Z,1.15
2022-12-11T05:24:32.982Z,1.16
2022-12-11T05:25:54.997Z,1.16
2022-12-11T05:27:16.844Z,1.18
2022-12-11T05:28:38.682Z,1.18
2022-12-11T05:30:00.397Z,1.19
2022-12-11T05:31:25.409Z,1.19
2022-12-11T05:32:47.367Z,1.19
2022-12-11T05:34:11.108Z,1.20
2022-12-11T05:35:32.607Z,1.19
2022-12-11T05:36:53.415Z,1.19
2022-12-11T05:38:16.843Z,1.20
2022-12-11T05:39:38.886Z,1.18
2022-12-11T05:40:59.831Z,1.18
2022-12-11T05:42:28.460Z,1.16
2022-12-11T05:43:49.307Z,1.16
2022-12-11T05:45:11.785Z,1.14
2022-12-11T05:46:34.007Z,1.12
2022-12-11T05:47:57.508Z,1.12
2022-12-11T05:49:19.976Z,1.09
2022-12-11T05:50:41.969Z,1.08
2022-12-11T05:52:03.860Z,1.06
2022-12-11T05:53:29.129Z,1.05
2022-12-11T05:54:51.038Z,1.03
2022-12-11T05:56:14.550Z,1.03
2022-12-11T05:57:36.148Z,1.01
2022-12-11T05:58:58.388Z,1.01
2022-12-11T06:00:20.755Z,1.00
2022-12-11T06:01:45.105Z,1.00
2022-12-11T06:03:05.922Z,0.99
2022-12-11T06:04:27.996Z,0.99
2022-12-11T06:05:49.452Z,0.99
2022-12-11T06:07:11.067Z,1.00
2022-12-11T06:08:46.069Z,0.99
2022-12-11T06:10:08.221Z,0.99
2022-12-11T06:11:31.000Z,0.99
2022-12-11T06:12:52.917Z,1.00
2022-12-11T06:14:14.732Z,0.99
2022-12-11T06:15:35.534Z,1.00
2022-12-11T06:16:57.435Z,0.98
2022-12-11T06:18:18.027Z,0.99
2022-12-11T06:19:39.962Z,0.98
2022-12-11T06:21:00.603Z,0.97
2022-12-11T06:22:22.555Z,0.97
2022-12-11T06:23:45.321Z,0.97
2022-12-11T06:25:07.780Z,0.94
2022-12-11T06:26:28.760Z,0.93
2022-12-11T06:27:51.354Z,0.92
2022-12-11T06:29:13.329Z,0.91
2022-12-11T06:30:38.353Z,0.91
2022-12-11T06:32:01.237Z,0.91
2022-12-11T06:33:22.871Z,0.91
2022-12-11T06:34:44.519Z,0.91
2022-12-11T06:36:08.698Z,0.91
2022-12-11T06:37:32.782Z,0.91
2022-12-11T06:38:56.643Z,0.91
2022-12-11T06:40:18.339Z,0.93
2022-12-11T06:41:39.928Z,0.93
2022-12-11T06:43:01.635Z,0.93
2022-12-11T06:44:25.127Z,0.93
2022-12-11T06:45:48.674Z,0.93
2022-12-11T06:47:10.522Z,0.93
2022-12-11T06:48:34.027Z,0.94
2022-12-11T06:49:56.564Z,0.94
2022-12-11T06:51:19.891Z,0.94
2022-12-11T06:52:40.409Z,0.94
2022-12-11T06:54:03.666Z,0.95
2022-12-11T06:55:25.278Z,0.94
2022-12-11T06:56:47.034Z,0.94
2022-12-11T06:58:07.598Z,0.95
2022-12-11T06:59:29.548Z,0.95
2022-12-11T07:00:51.256Z,0.96
2022-12-11T07:02:14.227Z,0.96
2022-12-11T07:03:35.807Z,0.98
2022-12-11T07:04:57.482Z,0.98
2022-12-11T07:06:19.152Z,1.00
2022-12-11T07:07:40.512Z,1.02
2022-12-11T07:09:04.874Z,1.03
2022-12-11T07:10:26.288Z,1.04
2022-12-11T07:11:50.535Z,1.04
2022-12-11T07:13:11.997Z,1.04
2022-12-11T07:14:33.826Z,1.05
2022-12-11T07:15:55.803Z,1.05
2022-12-11T07:17:17.396Z,1.05
2022-12-11T07:18:38.309Z,1.04
2022-12-11T07:20:00.129Z,1.04
2022-12-11T07:21:22.022Z,1.05
2022-12-11T07:22:46.591Z,1.05
2022-12-11T07:24:10.099Z,1.06
2022-12-11T07:25:31.618Z,1.06
2022-12-11T07:26:54.079Z,1.07
2022-12-11T07:28:16.843Z,1.08
2022-12-11T07:29:41.714Z,1.08
2022-12-11T07:31:06.266Z,1.08
2022-12-11T07:32:27.948Z,1.10
2022-12-11T07:33:54.176Z,1.10
2022-12-11T07:35:16.101Z,1.10
2022-12-11T07:36:37.718Z,1.09
2022-12-11T07:37:59.787Z,1.10
2022-12-11T07:39:23.119Z,1.11
2022-12-11T07:40:46.637Z,1.10
2022-12-11T07:42:08.532Z,1.10
2022-12-11T07:43:30.236Z,1.09
2022-12-11T07:44:51.906Z,1.09
2022-12-11T07:46:14.741Z,1.08
2022-12-11T07:47:36.497Z,1.08
2022-12-11T07:48:58.327Z,1.07
2022-12-11T07:50:20.105Z,1.07
2022-12-11T07:51:41.845Z,1.07
2022-12-11T07:53:03.447Z,1.07
2022-12-11T07:54:26.488Z,1.06
2022-12-11T07:55:48.435Z,1.06
2022-12-11T07:57:14.078Z,1.05
2022-12-11T07:58:39.125Z,1.05
2022-12-11T08:00:02.012Z,1.05
2022-12-11T08:01:36.640Z,1.06
2022-12-11T08:02:59.158Z,1.07
2022-12-11T08:04:21.279Z,1.07
2022-12-11T08:05:47.905Z,1.09
2022-12-11T08:07:09.648Z,1.10
2022-12-11T08:08:31.215Z,1.11
2022-12-11T08:09:54.722Z,1.12
2022-12-11T08:11:17.097Z,1.11
2022-12-11T08:12:40.568Z,1.11
2022-12-11T08:14:02.600Z,1.11
2022-12-11T08:15:24.178Z,1.10
2022-12-11T08:16:46.056Z,1.10
2022-12-11T08:18:08.102Z,1.12
2022-12-11T08:19:29.868Z,1.12
2022-12-11T08:20:50.498Z,1.14
2022-12-11T08:22:13.390Z,1.14
2022-12-11T08:23:37.122Z,1.14
2022-12-11T08:25:00.688Z,1.14
2022-12-11T08:26:24.063Z,1.14
2022-12-11T08:27:46.163Z,1.14
2022-12-11T08:29:07.773Z,1.14
2022-12-11T08:30:30.546Z,1.14
2022-12-11T08:31:52.661Z,1.13
2022-12-11T08:33:14.586Z,1.11
2022-12-11T08:34:36.332Z,1.11
2022-12-11T08:35:56.948Z,1.08
2022-12-11T08:37:18.717Z,1.08
2022-12-11T08:38:40.360Z,1.07
2022-12-11T08:40:03.636Z,1.06
2022-12-11T08:41:26.339Z,1.06
2022-12-11T08:42:47.863Z,1.06
2022-12-11T08:44:16.319Z,1.04
2022-12-11T08:45:40.869Z,1.04
2022-12-11T08:47:03.560Z,1.06
2022-12-11T08:48:25.523Z,1.04
2022-12-11T08:49:47.308Z,1.06
2022-12-11T08:51:10.114Z,1.05
2022-12-11T08:52:39.803Z,1.06
2022-12-11T08:54:02.411Z,1.07
2022-12-11T08:55:28.607Z,1.06
2022-12-11T08:56:58.025Z,1.05
2022-12-11T08:58:21.984Z,1.05
2022-12-11T08:59:43.565Z,1.04
2022-12-11T09:01:07.530Z,1.04
2022-12-11T09:02:29.580Z,1.05
2022-12-11T09:03:51.976Z,1.08
2022-12-11T09:05:14.288Z,1.09
2022-12-11T09:06:36.074Z,1.10
2022-12-11T09:07:59.537Z,1.14
2022-12-11T09:09:21.490Z,1.18
2022-12-11T09:10:44.431Z,1.21
2022-12-11T09:12:06.529Z,1.23
2022-12-11T09:13:28.307Z,1.26
2022-12-11T09:14:50.225Z,1.29
2022-12-11T09:16:16.364Z,1.34
2022-12-11T09:17:38.082Z,1.37
2022-12-11T09:19:00.315Z,1.40
2022-12-11T09:20:22.315Z,1.42
2022-12-11T09:21:44.436Z,1.44
2022-12-11T09:23:05.803Z,1.45
2022-12-11T09:24:27.497Z,1.46
2022-12-11T09:25:50.695Z,1.49
2022-12-11T09:27:12.570Z,1.52
2022-12-11T09:28:34.492Z,1.53
2022-12-11T09:29:59.120Z,1.55
2022-12-11T09:31:23.594Z,1.56
2022-12-11T09:32:45.634Z,1.57
2022-12-11T09:34:08.207Z,1.57
2022-12-11T09:35:29.965Z,1.57
2022-12-11T09:36:51.514Z,1.57
2022-12-11T09:38:12.951Z,1.55
2022-12-11T09:39:34.600Z,1.53
2022-12-11T09:40:57.727Z,1.49
2022-12-11T09:42:22.782Z,1.48
2022-12-11T09:43:47.186Z,1.46
2022-12-11T09:45:14.308Z,1.45
2022-12-11T09:46:36.150Z,1.42
2022-12-11T09:47:58.097Z,1.41
2022-12-11T09:49:25.335Z,1.38
2022-12-11T09:50:47.431Z,1.35
2022-12-11T09:52:12.671Z,1.32
2022-12-11T09:53:39.032Z,1.29
2022-12-11T09:55:05.287Z,1.26
2022-12-11T09:56:33.807Z,1.25
2022-12-11T09:58:00.833Z,1.22
2022-12-11T09:59:24.175Z,1.22
2022-12-11T10:00:47.786Z,1.21
2022-12-11T10:02:17.875Z,1.20
2022-12-11T10:03:57.145Z,1.19
2022-12-11T10:05:22.661Z,1.18
2022-12-11T10:06:48.519Z,1.17
2022-12-11T10:08:17.149Z,1.12
2022-12-11T10:09:44.468Z,1.14
2022-12-11T10:11:13.811Z,1.13
2022-12-11T10:12:41.818Z,1.11
2022-12-11T10:14:08.049Z,1.10
2022-12-11T10:15:37.133Z,1.11
2022-12-11T10:17:01.234Z,1.10
2022-12-11T10:18:25.301Z,1.09
2022-12-11T10:19:47.367Z,1.08
2022-12-11T10:21:09.229Z,1.11
2022-12-11T10:22:35.629Z,1.10
2022-12-11T10:23:59.775Z,1.12
2022-12-11T10:25:22.832Z,1.12
2022-12-11T10:26:44.763Z,1.12
2022-12-11T10:28:12.909Z,1.12
2022-12-11T10:29:35.116Z,1.11
2022-12-11T10:31:03.452Z,1.09
2022-12-11T10:32:25.822Z,1.08
2022-12-11T10:33:54.690Z,1.06
2022-12-11T10:35:20.700Z,1.05
2022-12-11T10:36:43.206Z,1.06
2022-12-11T10:38:13.810Z,1.03
2022-12-11T10:39:35.576Z,1.04
2022-12-11T10:40:59.194Z,1.03
2022-12-11T10:42:21.703Z,1.02
2022-12-11T10:43:46.128Z,1.03
2022-12-11T10:45:09.065Z,1.02
2022-12-11T10:46:33.220Z,1.01
2022-12-11T10:48:03.352Z,1.01
2022-12-11T10:49:31.548Z,1.00
2022-12-11T10:50:58.150Z,1.00
2022-12-11T10:52:22.516Z,1.01
2022-12-11T10:53:44.888Z,1.02
2022-12-11T10:55:12.305Z,1.02
2022-12-11T10:56:41.420Z,1.02
2022-12-11T10:58:08.762Z,1.01
2022-12-11T10:59:35.636Z,1.00
2022-12-11T11:01:04.343Z,0.99
2022-12-11T11:02:27.309Z,1.00
2022-12-11T11:03:58.632Z,0.98
2022-12-11T11:05:29.638Z,0.97
2022-12-11T11:07:02.215Z,0.97
2022-12-11T11:08:24.493Z,0.95
2022-12-11T11:09:46.429Z,0.93
2022-12-11T11:11:21.593Z,0.92
2022-12-11T11:12:45.085Z,0.90
2022-12-11T11:14:14.956Z,0.88
2022-12-11T11:15:38.229Z,0.87
2022-12-11T11:17:05.306Z,0.86
2022-12-11T11:18:31.061Z,0.86
2022-12-11T11:19:53.640Z,0.84
2022-12-11T11:21:20.908Z,0.86
2022-12-11T11:22:45.122Z,0.87
2022-12-11T11:24:07.311Z,0.88
2022-12-11T11:25:30.038Z,0.88
2022-12-11T11:28:36.425Z,0.86
2022-12-11T11:29:59.561Z,0.84
2022-12-11T11:31:24.072Z,0.84
2022-12-11T11:32:48.434Z,0.83
2022-12-11T11:34:11.703Z,0.82
2022-12-11T11:35:33.907Z,0.81
2022-12-11T11:37:01.137Z,0.80
2022-12-11T11:38:24.606Z,0.80
2022-12-11T11:39:48.163Z,0.80
2022-12-11T11:41:15.222Z,0.80
2022-12-11T11:42:42.544Z,0.80
2022-12-11T11:44:08.187Z,0.79
2022-12-11T11:45:33.310Z,0.79
2022-12-11T11:47:00.903Z,0.78
2022-12-11T11:48:29.006Z,0.78
2022-12-11T11:49:57.396Z,0.78
2022-12-11T11:51:26.147Z,0.78
2022-12-11T11:52:53.385Z,0.78
2022-12-11T11:54:22.569Z,0.77
2022-12-11T11:55:50.156Z,0.79
2022-12-11T11:57:18.282Z,0.78
2022-12-11T11:58:45.386Z,0.78
2022-12-11T12:00:10.963Z,0.77
2022-12-11T12:01:35.851Z,0.77
2022-12-11T12:03:00.957Z,0.76
2022-12-11T12:04:22.746Z,0.76
2022-12-11T12:05:50.747Z,0.77
2022-12-11T12:07:25.531Z,0.76
2022-12-11T12:08:52.698Z,0.74
2022-12-11T12:10:20.054Z,0.75
2022-12-11T12:11:44.312Z,0.75
2022-12-11T12:13:30.172Z,0.76
2022-12-11T12:14:57.141Z,0.78
2022-12-11T12:16:51.643Z,0.79
2022-12-11T12:18:13.433Z,0.81
2022-12-11T12:19:42.633Z,0.81
2022-12-11T12:21:14.426Z,0.82
2022-12-11T12:22:47.038Z,0.83
2022-12-11T12:24:13.593Z,0.84
2022-12-11T12:25:39.998Z,0.85
2022-12-11T12:27:03.132Z,0.88
2022-12-11T12:28:31.897Z,0.90
2022-12-11T12:29:56.411Z,0.89
2022-12-11T12:31:25.007Z,0.88
2022-12-11T12:32:54.779Z,0.88
2022-12-11T12:34:26.593Z,0.85
2022-12-11T12:35:52.959Z,0.83
2022-12-11T12:37:23.068Z,0.83
2022-12-11T12:38:55.272Z,0.80
2022-12-11T12:40:22.062Z,0.79
2022-12-11T12:41:46.941Z,0.78
2022-12-11T12:43:20.443Z,0.78
2022-12-11T12:44:47.187Z,0.77
2022-12-11T12:46:14.609Z,0.76
2022-12-11T12:47:37.445Z,0.76
2022-12-11T12:49:00.420Z,0.77
2022-12-11T12:50:28.673Z,0.77
2022-12-11T12:51:53.200Z,0.78
2022-12-11T12:53:17.958Z,0.79
2022-12-11T12:55:04.683Z,0.79
2022-12-11T12:56:27.725Z,0.79
2022-12-11T12:57:50.650Z,0.79
2022-12-11T12:59:20.712Z,0.77
2022-12-11T13:00:44.174Z,0.76
2022-12-11T13:02:09.035Z,0.75
2022-12-11T13:03:33.950Z,0.74
2022-12-11T13:05:00.283Z,0.73
2022-12-11T13:06:36.046Z,0.72
2022-12-11T13:07:58.885Z,0.74
2022-12-11T13:09:22.882Z,0.73
2022-12-11T13:10:45.624Z,0.72
2022-12-11T13:12:14.756Z,0.72
2022-12-11T13:13:43.017Z,0.72
2022-12-11T13:15:05.209Z,0.70
2022-12-11T13:16:27.682Z,0.69
2022-12-11T13:17:51.303Z,0.68
2022-12-11T13:19:31.017Z,0.64
2022-12-11T13:20:53.291Z,0.63
2022-12-11T13:22:24.881Z,0.63
2022-12-11T13:23:46.681Z,0.61
2022-12-11T13:25:21.134Z,0.60
2022-12-11T13:26:43.766Z,0.59
2022-12-11T13:28:09.126Z,0.58
2022-12-11T13:29:34.989Z,0.58
2022-12-11T13:31:07.999Z,0.56
2022-12-11T13:32:31.983Z,0.55
2022-12-11T13:33:56.977Z,0.54
2022-12-11T13:35:19.350Z,0.54
2022-12-11T13:36:41.297Z,0.54
2022-12-11T13:38:07.530Z,0.53
2022-12-11T13:39:31.544Z,0.51
2022-12-11T13:40:54.791Z,0.52
2022-12-11T13:42:23.838Z,0.51
2022-12-11T13:43:48.021Z,0.49
2022-12-11T13:45:19.633Z,0.49
2022-12-11T13:46:41.809Z,0.49
2022-12-11T13:48:03.943Z,0.48
2022-12-11T13:49:30.234Z,0.47
2022-12-11T13:50:52.506Z,0.47
2022-12-11T13:52:18.546Z,0.46
2022-12-11T13:53:42.037Z,0.46
2022-12-11T13:55:04.245Z,0.45
2022-12-11T13:56:26.254Z,0.43
2022-12-11T13:57:47.912Z,0.43
2022-12-11T13:59:22.358Z,0.43
2022-12-11T14:00:43.904Z,0.41
2022-12-11T14:02:12.419Z,0.40
2022-12-11T14:03:34.586Z,0.39
2022-12-11T14:04:59.577Z,0.38
2022-12-11T14:06:22.984Z,0.38
2022-12-11T14:07:48.085Z,0.36
2022-12-11T14:09:11.429Z,0.36
2022-12-11T14:10:33.924Z,0.37
2022-12-11T14:11:58.165Z,0.37
2022-12-11T14:13:23.308Z,0.38
2022-12-11T14:14:47.719Z,0.38
2022-12-11T14:16:09.749Z,0.39
2022-12-11T14:17:33.399Z,0.39
2022-12-11T14:18:57.025Z,0.39
2022-12-11T14:20:23.510Z,0.40
2022-12-11T14:21:48.337Z,0.40
2022-12-11T14:23:17.991Z,0.39
2022-12-11T14:24:49.674Z,0.38
2022-12-11T14:26:22.578Z,0.38
2022-12-11T14:27:49.283Z,0.37
2022-12-11T14:29:24.488Z,0.36
2022-12-11T14:30:48.626Z,0.35
2022-12-11T14:32:10.846Z,0.35
2022-12-11T14:33:35.467Z,0.34
2022-12-11T14:34:58.061Z,0.34
2022-12-11T14:36:20.438Z,0.34
2022-12-11T14:37:42.462Z,0.34
2022-12-11T14:39:06.441Z,0.34
2022-12-11T14:40:34.105Z,0.33
2022-12-11T14:41:59.410Z,0.32
2022-12-11T14:43:23.564Z,0.32
2022-12-11T14:44:48.108Z,0.32
2022-12-11T14:46:12.448Z,0.32
2022-12-11T14:47:38.286Z,0.31
2022-12-11T14:49:04.976Z,0.29
2022-12-11T14:50:28.126Z,0.28
2022-12-11T14:51:53.707Z,0.28
2022-12-11T14:53:19.413Z,0.26
2022-12-11T14:54:42.615Z,0.25
2022-12-11T14:56:07.843Z,0.25
2022-12-11T14:57:30.864Z,0.23
2022-12-11T14:58:56.543Z,0.23
2022-12-11T15:00:26.215Z,0.23
2022-12-11T15:01:58.133Z,0.21
2022-12-11T15:03:26.196Z,0.21
2022-12-11T15:04:48.267Z,0.21
2022-12-11T15:06:24.232Z,0.21
2022-12-11T15:07:55.664Z,0.21
2022-12-11T15:09:19.607Z,0.22
2022-12-11T15:10:43.388Z,0.21
2022-12-11T15:12:11.961Z,0.21
2022-12-11T15:13:37.502Z,0.21
2022-12-11T15:15:04.650Z,0.20
2022-12-11T15:16:28.022Z,0.21
2022-12-11T15:17:52.820Z,0.19
2022-12-11T15:19:21.874Z,0.16
2022-12-11T15:20:43.586Z,0.16
2022-12-11T15:22:06.477Z,0.14
2022-12-11T15:23:28.391Z,0.13
2022-12-11T15:24:52.598Z,0.12
2022-12-11T15:26:14.388Z,0.10
2022-12-11T15:27:37.753Z,0.09
2022-12-11T15:29:01.928Z,0.10
2022-12-11T15:30:31.309Z,0.08
2022-12-11T15:32:00.676Z,0.09
2022-12-11T15:33:22.865Z,0.08
2022-12-11T15:34:46.139Z,0.08
2022-12-11T15:36:08.331Z,0.07
2022-12-11T15:37:31.572Z,0.08
2022-12-11T15:38:53.113Z,0.07
2022-12-11T15:40:15.005Z,0.07
2022-12-11T15:41:37.343Z,0.08
2022-12-11T15:43:02.662Z,0.07
2022-12-11T15:44:25.824Z,0.08
2022-12-11T15:45:47.580Z,0.07
2022-12-11T15:47:13.364Z,0.08
2022-12-11T15:48:35.903Z,0.09
2022-12-11T15:49:59.591Z,0.08
2022-12-11T15:51:21.410Z,0.09
2022-12-11T15:52:43.066Z,0.08
2022-12-11T15:54:08.111Z,0.08
2022-12-11T15:55:34.995Z,0.07
2022-12-11T15:56:57.007Z,0.06
2022-12-11T15:58:21.250Z,0.06
2022-12-11T15:59:42.843Z,0.05
2022-12-11T16:01:04.952Z,0.03
2022-12-11T16:02:28.121Z,0.02
2022-12-11T16:03:53.755Z,0.00
2022-12-11T16:05:18.932Z,-0.01
2022-12-11T16:06:45.431Z,-0.02
2022-12-11T16:08:07.936Z,-0.02
2022-12-11T16:09:30.464Z,-0.02
2022-12-11T16:10:53.467Z,-0.03
2022-12-11T16:12:15.458Z,-0.04
2022-12-11T16:13:38.848Z,-0.04
2022-12-11T16:15:01.038Z,-0.05
2022-12-11T16:16:23.046Z,-0.05
2022-12-11T16:17:45.085Z,-0.06
2022-12-11T16:19:06.641Z,-0.06
2022-12-11T16:20:28.465Z,-0.05
2022-12-11T16:21:49.918Z,-0.06
2022-12-11T16:23:13.243Z,-0.06
2022-12-11T16:24:35.246Z,-0.06
2022-12-11T16:25:58.016Z,-0.04
2022-12-11T16:27:23.097Z,-0.05
2022-12-11T16:28:47.915Z,-0.04
2022-12-11T16:30:13.787Z,-0.04
2022-12-11T16:31:35.444Z,-0.02
2022-12-11T16:32:57.251Z,0.01
2022-12-11T16:34:19.181Z,0.01
2022-12-11T16:35:41.686Z,0.02
2022-12-11T16:37:06.186Z,0.01
2022-12-11T16:38:27.975Z,0.01
2022-12-11T16:39:49.621Z,0.01
2022-12-11T16:41:11.403Z,0.02
2022-12-11T16:42:32.960Z,0.01
2022-12-11T16:43:56.075Z,0.01
2022-12-11T16:45:23.717Z,0.01
2022-12-11T16:46:45.509Z,0.01
2022-12-11T16:48:07.168Z,0.01
2022-12-11T16:49:28.835Z,-0.01
2022-12-11T16:50:51.094Z,-0.02
2022-12-11T16:52:15.346Z,-0.02
2022-12-11T16:53:41.030Z,-0.04
2022-12-11T16:55:02.665Z,-0.03
2022-12-11T16:56:25.200Z,-0.03
2022-12-11T16:57:47.489Z,-0.04
2022-12-11T16:59:11.082Z,-0.05
2022-12-11T17:00:32.762Z,-0.04
2022-12-11T17:01:55.014Z,-0.04
2022-12-11T17:03:17.490Z,-0.04
2022-12-11T17:04:40.342Z,-0.05
2022-12-11T17:06:02.556Z,-0.03
2022-12-11T17:07:24.389Z,-0.03
2022-12-11T17:08:46.352Z,-0.03
2022-12-11T17:10:08.735Z,-0.03
2022-12-11T17:11:30.507Z,-0.03
2022-12-11T17:12:52.474Z,-0.03
2022-12-11T17:14:15.541Z,-0.02
2022-12-11T17:15:40.917Z,-0.01
2022-12-11T17:17:02.749Z,-0.01
2022-12-11T17:18:24.302Z,-0.01
2022-12-11T17:19:47.716Z,-0.01
2022-12-11T17:21:10.467Z,-0.01
2022-12-11T17:22:32.253Z,0.00
2022-12-11T17:23:53.921Z,0.01
2022-12-11T17:25:19.442Z,0.00
2022-12-11T17:26:41.321Z,0.01
2022-12-11T17:28:03.052Z,0.00
2022-12-11T17:29:37.103Z,-0.01
2022-12-11T17:30:59.718Z,0.01
2022-12-11T17:32:24.407Z,-0.01
2022-12-11T17:33:47.845Z,0.01
2022-12-11T17:35:10.009Z,-0.01
2022-12-11T17:36:32.477Z,0.00
2022-12-11T17:37:54.090Z,-0.01
2022-12-11T17:39:15.808Z,0.01
2022-12-11T17:40:40.901Z,0.01
2022-12-11T17:42:03.046Z,0.01
2022-12-11T17:43:24.851Z,0.01
2022-12-11T17:44:48.420Z,-0.01
2022-12-11T17:46:14.855Z,0.00
2022-12-11T17:47:38.983Z,-0.01
2022-12-11T17:49:03.940Z,0.00
2022-12-11T17:50:25.719Z,-0.01
2022-12-11T17:51:48.297Z,0.00
2022-12-11T17:53:16.208Z,0.01
2022-12-11T17:54:39.364Z,0.02
2022-12-11T17:56:02.731Z,0.02
2022-12-11T17:57:24.680Z,0.03
2022-12-11T17:58:46.803Z,0.04
2022-12-11T18:00:13.280Z,0.03
2022-12-11T18:01:35.978Z,0.03
2022-12-11T18:03:01.922Z,0.01
2022-12-11T18:04:25.254Z,0.01
2022-12-11T18:05:48.165Z,0.01
2022-12-11T18:07:10.889Z,0.03
2022-12-11T18:08:33.318Z,0.03
2022-12-11T18:09:55.742Z,0.03
2022-12-11T18:11:19.057Z,0.03
2022-12-11T18:12:41.830Z,0.05
2022-12-11T18:14:06.232Z,0.05
2022-12-11T18:15:29.716Z,0.04
2022-12-11T18:16:52.900Z,0.04
2022-12-11T18:18:18.386Z,0.04
2022-12-11T18:19:45.835Z,0.05
2022-12-11T18:21:08.002Z,0.06
2022-12-11T18:22:30.176Z,0.06
2022-12-11T18:23:53.101Z,0.07
2022-12-11T18:25:22.321Z,0.08
2022-12-11T18:26:44.642Z,0.09
2022-12-11T18:28:08.931Z,0.10
2022-12-11T18:29:36.049Z,0.11
2022-12-11T18:31:03.439Z,0.12
2022-12-11T18:32:27.381Z,0.11
2022-12-11T18:33:49.700Z,0.11
2022-12-11T18:35:14.374Z,0.11
2022-12-11T18:36:36.614Z,0.10
2022-12-11T18:37:58.391Z,0.11
2022-12-11T18:39:19.782Z,0.11
2022-12-11T18:40:41.354Z,0.10
2022-12-11T18:42:31.631Z,0.08